createdAt,value
2023-03-12T00:01:23.473Z,7.40
2023-03-12T00:03:36.093Z,6.90
2023-03-12T00:05:48.706Z,7.30
2023-03-12T00:08:01.275Z,7.40
2023-03-12T00:10:14.528Z,7.30
2023-03-12T00:12:27.092Z,7.10
2023-03-12T00:14:39.678Z,6.90
2023-03-12T00:16:52.275Z,6.80
2023-03-12T00:19:04.899Z,6.30
2023-03-12T00:21:18.613Z,6.20
2023-03-12T00:23:31.284Z,5.80
2023-03-12T00:25:46.730Z,5.70
2023-03-12T00:27:59.502Z,5.60
2023-03-12T00:30:12.461Z,5.40
2023-03-12T00:32:25.199Z,5.70
2023-03-12T00:34:37.750Z,5.60
2023-03-12T00:36:50.354Z,5.10
2023-03-12T00:39:03.488Z,4.90
2023-03-12T00:41:16.015Z,5.10
2023-03-12T00:43:28.561Z,5.30
2023-03-12T00:45:41.149Z,5.10
2023-03-12T00:47:53.775Z,5.10
2023-03-12T00:50:06.743Z,5.20
2023-03-12T00:52:19.319Z,4.90
2023-03-12T00:54:32.128Z,5.10
2023-03-12T00:56:46.701Z,5.30
2023-03-12T00:58:59.287Z,4.70
2023-03-12T01:01:12.132Z,4.70
2023-03-12T01:03:24.802Z,4.90
2023-03-12T01:05:40.662Z,4.50
2023-03-12T01:07:53.376Z,4.60
2023-03-12T01:10:06.999Z,4.30
2023-03-12T01:12:19.636Z,4.40
2023-03-12T01:14:32.235Z,4.20
2023-03-12T01:16:44.917Z,4.60
2023-03-12T01:18:59.391Z,4.30
2023-03-12T01:21:12.037Z,4.10
2023-03-12T01:23:25.111Z,4.20
2023-03-12T01:25:37.677Z,4.60
2023-03-12T01:27:50.318Z,4.10
2023-03-12T01:30:05.464Z,3.70
2023-03-12T01:32:18.293Z,4.50
2023-03-12T01:34:33.323Z,4.10
2023-03-12T01:36:47.616Z,3.60
2023-03-12T01:39:00.290Z,3.70
2023-03-12T01:41:13.186Z,3.90
2023-03-12T01:43:34.625Z,3.70
2023-03-12T01:46:03.624Z,3.80
2023-03-12T01:48:19.394Z,3.70
2023-03-12T01:50:31.989Z,3.60
2023-03-12T01:52:44.545Z,3.30
2023-03-12T01:55:09.484Z,3.50
2023-03-12T01:57:32.358Z,3.70
2023-03-12T01:59:59.130Z,3.30
2023-03-12T02:02:12.671Z,3.40
2023-03-12T02:04:28.828Z,3.10
2023-03-12T02:06:50.162Z,3.40
2023-03-12T02:09:06.040Z,3.30
2023-03-12T02:11:18.708Z,3.40
2023-03-12T02:13:31.399Z,3.30
2023-03-12T02:15:44.049Z,3.90
2023-03-12T02:17:56.663Z,3.50
2023-03-12T02:20:20.341Z,3.20
2023-03-12T02:22:35.485Z,3.50
2023-03-12T02:25:03.999Z,3.20
2023-03-12T02:27:18.968Z,3.10
2023-03-12T02:29:34.784Z,3.30
2023-03-12T02:31:52.395Z,3.10
2023-03-12T02:34:05.106Z,3.00
2023-03-12T02:36:17.716Z,3.40
2023-03-12T02:38:35.380Z,3.50
2023-03-12T02:40:48.825Z,3.00
2023-03-12T02:43:03.109Z,3.20
2023-03-12T02:45:15.796Z,3.20
2023-03-12T02:47:28.445Z,3.20
2023-03-12T02:49:41.059Z,3.40
2023-03-12T02:51:54.563Z,2.80
2023-03-12T02:54:07.907Z,2.80
2023-03-12T02:56:26.237Z,2.90
2023-03-12T02:58:38.797Z,2.80
2023-03-12T03:00:51.670Z,2.80
2023-03-12T03:03:04.279Z,2.60
2023-03-12T03:05:16.927Z,2.50
2023-03-12T03:07:29.547Z,2.30
2023-03-12T03:09:42.164Z,2.80
2023-03-12T03:11:54.729Z,2.60
2023-03-12T03:14:07.442Z,2.50
2023-03-12T03:16:21.036Z,2.50
2023-03-12T03:18:33.838Z,2.40
2023-03-12T03:20:54.186Z,2.30
2023-03-12T03:23:06.722Z,2.30
2023-03-12T03:25:22.236Z,2.10
2023-03-12T03:27:34.960Z,2.20
2023-03-12T03:29:47.562Z,2.20
2023-03-12T03:32:00.276Z,2.50
2023-03-12T03:34:12.924Z,2.40
2023-03-12T03:36:25.510Z,2.30
2023-03-12T03:38:38.085Z,2.20
2023-03-12T03:40:50.680Z,2.60
2023-03-12T03:43:03.290Z,2.40
2023-03-12T03:45:16.049Z,2.30
2023-03-12T03:47:28.640Z,2.10
2023-03-12T03:49:41.236Z,2.20
2023-03-12T03:51:53.882Z,2.10
2023-03-12T03:54:06.439Z,2.00
2023-03-12T03:56:19.394Z,2.20
2023-03-12T03:58:31.934Z,2.10
2023-03-12T04:00:45.473Z,2.20
2023-03-12T04:02:58.098Z,2.10
2023-03-12T04:05:11.216Z,2.10
2023-03-12T04:07:23.756Z,2.10
2023-03-12T04:09:36.805Z,2.00
2023-03-12T04:11:49.376Z,2.40
2023-03-12T04:14:01.930Z,2.20
2023-03-12T04:16:15.855Z,2.10
2023-03-12T04:18:28.593Z,2.10
2023-03-12T04:20:41.449Z,2.00
2023-03-12T04:22:54.137Z,2.10
2023-03-12T04:25:07.395Z,2.30
2023-03-12T04:27:19.930Z,2.10
2023-03-12T04:29:32.440Z,2.00
2023-03-12T04:31:45.602Z,2.20
2023-03-12T04:33:58.208Z,2.10
2023-03-12T04:36:13.232Z,2.20
2023-03-12T04:38:27.251Z,2.30
2023-03-12T04:40:39.802Z,2.30
2023-03-12T04:42:52.351Z,2.30
2023-03-12T04:45:06.777Z,2.30
2023-03-12T04:47:19.299Z,2.10
2023-03-12T04:49:31.856Z,2.40
2023-03-12T04:51:44.488Z,2.20
2023-03-12T04:53:57.676Z,2.20
2023-03-12T04:56:10.284Z,2.10
2023-03-12T04:58:23.030Z,2.10
2023-03-12T05:00:36.681Z,2.20
2023-03-12T05:02:49.239Z,2.10
2023-03-12T05:05:01.931Z,2.10
2023-03-12T05:07:14.977Z,1.80
2023-03-12T05:09:27.667Z,2.00
2023-03-12T05:11:40.182Z,2.10
2023-03-12T05:13:52.841Z,1.90
2023-03-12T05:16:06.006Z,2.20
2023-03-12T05:18:20.510Z,2.00
2023-03-12T05:20:33.096Z,2.10
2023-03-12T05:22:45.818Z,1.90
2023-03-12T05:24:58.321Z,1.90
2023-03-12T05:27:11.569Z,2.00
2023-03-12T05:29:24.248Z,1.80
2023-03-12T05:31:36.951Z,2.00
2023-03-12T05:33:52.711Z,1.80
2023-03-12T05:36:05.955Z,1.80
2023-03-12T05:38:18.636Z,2.00
2023-03-12T05:40:31.206Z,1.90
2023-03-12T05:42:43.777Z,1.90
2023-03-12T05:44:59.288Z,1.90
2023-03-12T05:47:11.982Z,2.00
2023-03-12T05:49:24.694Z,2.10
2023-03-12T05:51:37.260Z,1.90
2023-03-12T05:53:49.835Z,1.90
2023-03-12T05:56:07.864Z,1.80
2023-03-12T05:58:20.612Z,2.00
2023-03-12T06:00:37.890Z,2.10
2023-03-12T06:02:50.623Z,2.30
2023-03-12T06:05:03.297Z,2.30
2023-03-12T06:07:15.901Z,2.30
2023-03-12T06:09:28.404Z,2.20
2023-03-12T06:11:40.951Z,2.40
2023-03-12T06:13:53.573Z,2.20
2023-03-12T06:16:09.215Z,2.20
2023-03-12T06:18:21.795Z,2.60
2023-03-12T06:20:34.348Z,2.40
2023-03-12T06:22:46.934Z,2.20
2023-03-12T06:24:59.718Z,2.20
2023-03-12T06:27:16.040Z,2.40
2023-03-12T06:29:28.607Z,2.50
2023-03-12T06:31:42.161Z,2.20
2023-03-12T06:33:54.821Z,2.00
2023-03-12T06:36:08.858Z,2.20
2023-03-12T06:38:21.728Z,2.20
2023-03-12T06:40:34.301Z,2.50
2023-03-12T06:42:46.928Z,2.50
2023-03-12T06:44:59.466Z,2.40
2023-03-12T06:47:12.222Z,2.50
2023-03-12T06:49:25.633Z,2.50
2023-03-12T06:51:38.276Z,2.30
2023-03-12T06:53:50.792Z,2.10
2023-03-12T06:56:04.610Z,2.60
2023-03-12T06:58:18.161Z,2.30
2023-03-12T07:00:32.281Z,2.40
2023-03-12T07:02:44.865Z,3.50
2023-03-12T07:04:57.918Z,2.80
2023-03-12T07:07:11.944Z,2.60
2023-03-12T07:09:24.626Z,2.40
2023-03-12T07:11:37.176Z,2.40
2023-03-12T07:13:49.894Z,2.40
2023-03-12T07:16:03.280Z,2.20
2023-03-12T07:18:16.159Z,2.80
2023-03-12T07:20:29.072Z,2.40
2023-03-12T07:22:41.779Z,2.10
2023-03-12T07:24:54.873Z,2.20
2023-03-12T07:27:07.467Z,2.30
2023-03-12T07:29:20.187Z,2.40
2023-03-12T07:31:32.926Z,2.90
2023-03-12T07:33:45.832Z,2.40
2023-03-12T07:35:58.925Z,3.20
2023-03-12T07:38:11.757Z,2.60
2023-03-12T07:40:24.732Z,2.00
2023-03-12T07:42:37.534Z,2.00
2023-03-12T07:44:50.608Z,2.40
2023-03-12T07:47:20.586Z,2.00
2023-03-12T07:49:35.782Z,2.20
2023-03-12T07:51:48.980Z,3.20
2023-03-12T07:54:01.741Z,2.90
2023-03-12T07:56:14.589Z,4.40
2023-03-12T07:58:27.520Z,2.80
2023-03-12T08:00:40.177Z,2.20
2023-03-12T08:02:53.282Z,3.60
2023-03-12T08:05:07.145Z,4.20
2023-03-12T08:07:19.911Z,3.00
2023-03-12T08:09:33.241Z,3.40
2023-03-12T08:11:45.909Z,2.70
2023-03-12T08:13:58.560Z,2.50
2023-03-12T08:16:11.576Z,2.60
2023-03-12T08:18:24.788Z,3.70
2023-03-12T08:20:37.481Z,2.90
2023-03-12T08:22:50.632Z,3.00
2023-03-12T08:25:03.910Z,3.30
2023-03-12T08:27:16.511Z,2.70
2023-03-12T08:29:29.078Z,2.90
2023-03-12T08:31:50.639Z,2.60
2023-03-12T08:34:14.367Z,3.10
2023-03-12T08:36:27.049Z,2.60
2023-03-12T08:38:39.670Z,2.40
2023-03-12T08:41:00.385Z,2.70
2023-03-12T08:43:13.081Z,2.80
2023-03-12T08:45:25.718Z,2.60
2023-03-12T08:47:41.502Z,2.70
2023-03-12T08:49:54.181Z,2.90
2023-03-12T08:52:07.113Z,2.80
2023-03-12T08:54:20.855Z,2.60
2023-03-12T08:56:33.445Z,2.70
2023-03-12T08:58:46.115Z,2.80
2023-03-12T09:00:58.706Z,2.50
2023-03-12T09:03:14.831Z,2.60
2023-03-12T09:05:31.160Z,2.20
2023-03-12T09:07:43.809Z,2.60
2023-03-12T09:09:56.560Z,2.70
2023-03-12T09:12:09.471Z,2.10
2023-03-12T09:14:59.572Z,2.60
2023-03-12T09:16:54.909Z,2.30
2023-03-12T09:19:07.610Z,2.50
2023-03-12T09:21:20.369Z,2.20
2023-03-12T09:23:32.970Z,2.50
2023-03-12T09:25:46.581Z,2.70
2023-03-12T09:27:59.160Z,2.40
2023-03-12T09:30:15.675Z,2.90
2023-03-12T09:32:28.900Z,2.50
2023-03-12T09:34:42.054Z,2.70
2023-03-12T09:36:54.589Z,2.60
2023-03-12T09:39:07.155Z,2.50
2023-03-12T09:41:23.253Z,2.80
2023-03-12T09:43:35.821Z,2.60
2023-03-12T09:45:49.833Z,2.40
2023-03-12T09:48:06.135Z,2.40
2023-03-12T09:50:45.020Z,2.40
2023-03-12T09:53:12.059Z,2.50
2023-03-12T09:55:25.920Z,2.30
2023-03-12T09:57:38.924Z,2.00
2023-03-12T09:59:53.120Z,7.70
2023-03-12T10:02:40.962Z,2.10
2023-03-12T10:05:06.867Z,1.90
2023-03-12T10:07:38.403Z,2.10
2023-03-12T10:10:16.604Z,2.20
2023-03-12T10:12:45.286Z,2.30
2023-03-12T10:15:38.038Z,2.50
2023-03-12T10:17:56.359Z,3.00
2023-03-12T10:20:34.432Z,4.30
2023-03-12T10:23:09.099Z,2.70
2023-03-12T10:25:36.387Z,2.70
2023-03-12T10:27:50.068Z,2.00
2023-03-12T10:30:12.959Z,2.00
2023-03-12T10:32:42.251Z,2.10
2023-03-12T10:35:00.795Z,2.20
2023-03-12T10:37:29.809Z,2.30
2023-03-12T10:39:44.319Z,4.30
2023-03-12T10:42:01.817Z,2.20
2023-03-12T10:44:23.622Z,2.40
2023-03-12T10:46:52.131Z,3.20
2023-03-12T10:49:22.969Z,2.70
2023-03-12T10:51:54.185Z,2.40
2023-03-12T10:54:22.479Z,2.30
2023-03-12T10:56:49.336Z,2.40
2023-03-12T10:59:01.890Z,2.20
2023-03-12T11:01:23.920Z,2.80
2023-03-12T11:03:36.882Z,2.40
2023-03-12T11:05:52.624Z,1.90
2023-03-12T11:08:21.013Z,2.00
2023-03-12T11:10:45.156Z,2.10
2023-03-12T11:13:01.527Z,1.90
2023-03-12T11:15:38.095Z,2.10
2023-03-12T11:17:51.009Z,2.20
2023-03-12T11:20:21.587Z,2.50
2023-03-12T11:22:35.160Z,2.90
2023-03-12T11:25:06.980Z,3.70
2023-03-12T11:27:37.714Z,3.70
2023-03-12T11:29:50.794Z,4.60
2023-03-12T11:32:17.438Z,5.70
2023-03-12T11:34:37.300Z,2.70
2023-03-12T11:37:14.069Z,2.40
2023-03-12T11:39:27.792Z,2.50
2023-03-12T11:42:00.282Z,2.70
2023-03-12T11:44:14.283Z,2.60
2023-03-12T11:46:45.300Z,2.40
2023-03-12T11:49:34.133Z,2.40
2023-03-12T11:51:52.983Z,2.10
2023-03-12T11:54:22.883Z,2.40
2023-03-12T11:56:41.043Z,2.60
2023-03-12T11:58:59.536Z,3.20
2023-03-12T12:01:42.188Z,2.70
2023-03-12T12:04:33.962Z,2.70
2023-03-12T12:07:03.305Z,2.20
2023-03-12T12:09:44.736Z,2.90
2023-03-12T12:12:36.380Z,2.30
2023-03-12T12:15:03.886Z,2.60
2023-03-12T12:17:37.126Z,2.30
2023-03-12T12:20:21.613Z,3.00
2023-03-12T12:22:39.456Z,2.30
2023-03-12T12:25:25.482Z,3.30
2023-03-12T12:27:56.368Z,3.00
2023-03-12T12:30:40.855Z,3.10
2023-03-12T12:33:11.645Z,2.60
2023-03-12T12:35:44.205Z,2.40
2023-03-12T12:38:03.105Z,2.60
2023-03-12T12:40:32.663Z,2.40
2023-03-12T12:42:57.350Z,2.20
2023-03-12T12:45:14.360Z,2.30
2023-03-12T12:47:37.350Z,2.40
2023-03-12T12:49:58.167Z,3.00
2023-03-12T12:52:19.965Z,2.60
2023-03-12T12:54:51.810Z,3.00
2023-03-12T12:57:16.501Z,3.10
2023-03-12T12:59:58.581Z,2.30
2023-03-12T13:02:21.122Z,2.30
2023-03-12T13:04:37.301Z,2.30
2023-03-12T13:06:57.345Z,2.20
2023-03-12T13:09:15.427Z,2.40
2023-03-12T13:11:42.943Z,2.00
2023-03-12T13:14:04.702Z,1.90
2023-03-12T13:16:39.440Z,3.60
2023-03-12T13:19:06.775Z,4.30
2023-03-12T13:21:29.348Z,3.50
2023-03-12T13:23:51.664Z,3.50
2023-03-12T13:26:41.710Z,2.70
2023-03-12T13:29:05.945Z,2.80
2023-03-12T13:31:24.311Z,2.30
2023-03-12T13:33:42.560Z,2.80
2023-03-12T13:36:11.786Z,2.80
2023-03-12T13:38:55.281Z,3.10
2023-03-12T13:41:08.115Z,2.60
2023-03-12T13:43:38.830Z,2.40
2023-03-12T13:46:10.330Z,2.30
2023-03-12T13:48:24.264Z,3.40
2023-03-12T13:50:51.770Z,3.30
2023-03-12T13:53:08.441Z,2.60
2023-03-12T13:55:26.682Z,2.20
2023-03-12T13:57:43.316Z,2.40
2023-03-12T13:59:56.879Z,2.50
2023-03-12T14:02:23.836Z,2.30
2023-03-12T14:04:42.235Z,2.50
2023-03-12T14:07:09.833Z,6.10
2023-03-12T14:09:45.159Z,8.70
2023-03-12T14:12:14.183Z,6.10
2023-03-12T14:14:42.325Z,2.50
2023-03-12T14:17:01.428Z,2.60
2023-03-12T14:19:16.281Z,2.50
2023-03-12T14:21:35.114Z,2.60
2023-03-12T14:23:57.321Z,2.40
2023-03-12T14:26:20.701Z,2.40
2023-03-12T14:28:40.616Z,2.50
2023-03-12T14:31:03.404Z,4.30
2023-03-12T14:33:17.150Z,3.20
2023-03-12T14:35:38.296Z,3.10
2023-03-12T14:38:08.329Z,3.10
2023-03-12T14:40:46.774Z,2.60
2023-03-12T14:43:00.173Z,2.90
2023-03-12T14:45:18.580Z,4.60
2023-03-12T14:47:42.646Z,4.00
2023-03-12T14:49:57.582Z,2.90
2023-03-12T14:52:34.474Z,2.90
2023-03-12T14:54:59.742Z,3.50
2023-03-12T14:57:20.267Z,2.70
2023-03-12T14:59:39.476Z,2.70
2023-03-12T15:01:52.630Z,3.50
2023-03-12T15:04:15.197Z,3.20
2023-03-12T15:06:31.867Z,3.20
2023-03-12T15:08:45.855Z,3.00
2023-03-12T15:10:59.307Z,3.30
2023-03-12T15:13:13.121Z,3.20
2023-03-12T15:15:32.990Z,4.10
2023-03-12T15:17:45.647Z,4.20
2023-03-12T15:20:02.647Z,3.90
2023-03-12T15:22:20.645Z,3.90
2023-03-12T15:24:38.609Z,4.20
2023-03-12T15:26:51.277Z,4.10
2023-03-12T15:29:27.619Z,4.40
2023-03-12T15:31:46.503Z,4.20
2023-03-12T15:34:05.625Z,4.60
2023-03-12T15:36:25.326Z,5.60
2023-03-12T15:38:46.291Z,3.90
2023-03-12T15:41:06.072Z,4.10
2023-03-12T15:43:21.509Z,4.50
2023-03-12T15:45:40.851Z,4.10
2023-03-12T15:47:54.776Z,4.20
2023-03-12T15:50:17.756Z,4.10
2023-03-12T15:52:33.057Z,3.60
2023-03-12T15:55:22.128Z,3.30
2023-03-12T15:57:35.242Z,4.50
2023-03-12T16:00:08.930Z,3.80
2023-03-12T16:02:36.511Z,3.90
2023-03-12T16:04:49.166Z,3.60
2023-03-12T16:07:02.895Z,2.90
2023-03-12T16:09:21.505Z,3.10
2023-03-12T16:11:37.302Z,3.20
2023-03-12T16:13:52.081Z,3.10
2023-03-12T16:16:04.904Z,3.30
2023-03-12T16:18:19.878Z,3.60
2023-03-12T16:20:32.472Z,3.30
2023-03-12T16:22:45.051Z,3.30
2023-03-12T16:24:57.590Z,3.90
2023-03-12T16:27:18.105Z,5.20
2023-03-12T16:29:35.700Z,4.50
2023-03-12T16:31:52.618Z,4.60
2023-03-12T16:34:05.218Z,4.10
2023-03-12T16:36:19.197Z,5.10
2023-03-12T16:38:31.782Z,4.90
2023-03-12T16:40:47.740Z,5.20
2023-03-12T16:43:03.399Z,6.10
2023-03-12T16:45:17.951Z,4.80
2023-03-12T16:47:30.710Z,4.50
2023-03-12T16:49:44.056Z,5.20
2023-03-12T16:51:56.647Z,6.80
2023-03-12T16:54:11.845Z,7.50
2023-03-12T16:56:27.294Z,6.10
2023-03-12T16:58:39.857Z,5.30
2023-03-12T17:00:54.125Z,5.40
2023-03-12T17:03:06.845Z,5.10
2023-03-12T17:05:19.419Z,4.80
2023-03-12T17:07:31.990Z,4.50
2023-03-12T17:09:44.507Z,4.50
2023-03-12T17:11:57.646Z,5.20
2023-03-12T17:14:21.897Z,4.70
2023-03-12T17:16:37.065Z,4.40
2023-03-12T17:18:49.713Z,4.30
2023-03-12T17:21:02.291Z,4.90
2023-03-12T17:23:15.257Z,4.40
2023-03-12T17:25:31.322Z,4.70
2023-03-12T17:27:43.886Z,4.50
2023-03-12T17:29:56.410Z,5.30
2023-03-12T17:32:08.944Z,4.80
2023-03-12T17:34:21.460Z,5.20
2023-03-12T17:36:36.760Z,5.20
2023-03-12T17:38:50.973Z,9.40
2023-03-12T17:41:09.355Z,7.40
2023-03-12T17:43:26.653Z,5.40
2023-03-12T17:45:39.763Z,7.80
2023-03-12T17:47:52.443Z,9.90
2023-03-12T17:50:06.625Z,5.60
2023-03-12T17:52:19.360Z,6.10
2023-03-12T17:54:31.902Z,4.60
2023-03-12T17:56:44.458Z,4.90
2023-03-12T17:58:57.114Z,11.00
2023-03-12T18:01:12.089Z,8.50
2023-03-12T18:03:25.791Z,3.90
2023-03-12T18:05:41.465Z,5.10
2023-03-12T18:07:54.775Z,8.00
2023-03-12T18:10:11.054Z,7.60
2023-03-12T18:12:23.599Z,9.10
2023-03-12T18:14:36.721Z,4.30
2023-03-12T18:16:49.307Z,6.70
2023-03-12T18:19:01.910Z,13.00
2023-03-12T18:21:14.445Z,11.70
2023-03-12T18:23:27.772Z,5.50
2023-03-12T18:25:40.345Z,7.90
2023-03-12T18:27:54.054Z,6.60
2023-03-12T18:30:11.364Z,10.40
2023-03-12T18:32:23.921Z,23.60
2023-03-12T18:34:37.595Z,18.00
2023-03-12T18:36:50.302Z,3.80
2023-03-12T18:39:04.947Z,4.70
2023-03-12T18:41:17.660Z,4.70
2023-03-12T18:43:30.761Z,6.70
2023-03-12T18:45:44.097Z,5.90
2023-03-12T18:47:57.054Z,7.10
2023-03-12T18:50:10.717Z,7.90
2023-03-12T18:52:23.230Z,6.00
2023-03-12T18:54:35.845Z,5.80
2023-03-12T18:56:48.513Z,5.80
2023-03-12T18:59:01.054Z,5.50
2023-03-12T19:01:14.064Z,5.80
2023-03-12T19:03:27.035Z,5.90
2023-03-12T19:05:39.599Z,6.50
2023-03-12T19:07:52.219Z,6.60
2023-03-12T19:10:06.560Z,6.10
2023-03-12T19:12:19.087Z,5.80
2023-03-12T19:14:31.674Z,6.00
2023-03-12T19:16:44.219Z,6.10
2023-03-12T19:18:56.941Z,6.00
2023-03-12T19:21:09.856Z,11.10
2023-03-12T19:23:23.481Z,10.40
2023-03-12T19:25:37.165Z,9.20
2023-03-12T19:27:49.724Z,6.90
2023-03-12T19:30:02.256Z,6.30
2023-03-12T19:32:14.858Z,14.20
2023-03-12T19:34:27.777Z,6.20
2023-03-12T19:36:40.406Z,6.00
2023-03-12T19:38:52.951Z,5.80
2023-03-12T19:41:08.574Z,5.60
2023-03-12T19:43:21.725Z,5.30
2023-03-12T19:45:36.191Z,5.50
2023-03-12T19:47:49.854Z,5.40
2023-03-12T19:50:02.957Z,13.90
2023-03-12T19:52:15.840Z,5.50
2023-03-12T19:54:28.575Z,5.80
2023-03-12T19:56:41.107Z,12.80
2023-03-12T19:58:53.628Z,5.90
2023-03-12T20:01:06.477Z,5.50
2023-03-12T20:03:20.627Z,5.90
2023-03-12T20:05:33.258Z,6.00
2023-03-12T20:07:46.773Z,5.90
2023-03-12T20:09:59.507Z,6.10
2023-03-12T20:12:12.174Z,5.90
2023-03-12T20:14:25.187Z,6.40
2023-03-12T20:16:38.029Z,6.40
2023-03-12T20:18:50.884Z,6.60
2023-03-12T20:21:03.896Z,7.30
2023-03-12T20:23:16.596Z,7.00
2023-03-12T20:25:29.078Z,6.70
2023-03-12T20:27:41.780Z,7.00
2023-03-12T20:29:54.415Z,6.60
2023-03-12T20:32:07.036Z,6.90
2023-03-12T20:34:19.638Z,7.40
2023-03-12T20:36:32.283Z,8.20
2023-03-12T20:38:48.206Z,8.30
2023-03-12T20:41:01.118Z,11.00
2023-03-12T20:43:13.797Z,8.30
2023-03-12T20:45:26.465Z,10.90
2023-03-12T20:47:40.332Z,8.00
2023-03-12T20:49:53.066Z,12.00
2023-03-12T20:52:05.610Z,6.90
2023-03-12T20:54:18.191Z,4.50
2023-03-12T20:56:30.736Z,4.30
2023-03-12T20:58:43.287Z,4.50
2023-03-12T21:00:55.923Z,4.40
2023-03-12T21:03:12.178Z,6.20
2023-03-12T21:05:26.684Z,4.80
2023-03-12T21:07:39.308Z,6.40
2023-03-12T21:09:52.075Z,7.80
2023-03-12T21:12:04.773Z,4.70
2023-03-12T21:14:17.341Z,11.90
2023-03-12T21:16:29.931Z,8.50
2023-03-12T21:18:42.509Z,10.00
2023-03-12T21:21:01.295Z,4.70
2023-03-12T21:23:14.129Z,5.90
2023-03-12T21:25:26.650Z,6.60
2023-03-12T21:27:49.856Z,17.00
2023-03-12T21:30:04.700Z,13.50
2023-03-12T21:32:17.365Z,11.60
2023-03-12T21:34:30.535Z,18.60
2023-03-12T21:36:43.158Z,12.90
2023-03-12T21:38:55.697Z,24.10
2023-03-12T21:41:11.111Z,21.80
2023-03-12T21:43:23.998Z,23.40
2023-03-12T21:45:36.599Z,16.50
2023-03-12T21:47:49.135Z,8.80
2023-03-12T21:50:01.861Z,8.10
2023-03-12T21:52:14.452Z,16.40
2023-03-12T21:54:32.717Z,49.40
2023-03-12T21:56:45.289Z,13.30
2023-03-12T21:58:58.323Z,17.20
2023-03-12T22:01:13.806Z,24.20
2023-03-12T22:03:26.435Z,14.10
2023-03-12T22:05:39.115Z,20.30
2023-03-12T22:07:51.768Z,28.80
2023-03-12T22:10:11.710Z,12.40
2023-03-12T22:12:24.397Z,25.00
2023-03-12T22:14:36.966Z,7.70
2023-03-12T22:16:49.568Z,12.00
2023-03-12T22:19:02.115Z,8.40
2023-03-12T22:21:19.591Z,7.70
2023-03-12T22:23:32.147Z,30.90
2023-03-12T22:25:44.746Z,10.40
2023-03-12T22:27:57.381Z,7.20
2023-03-12T22:30:12.343Z,18.70
2023-03-12T22:32:25.669Z,28.70
2023-03-12T22:34:38.835Z,14.50
2023-03-12T22:36:51.368Z,16.40
2023-03-12T22:39:03.950Z,7.50
2023-03-12T22:41:26.772Z,6.30
2023-03-12T22:43:39.393Z,29.70
2023-03-12T22:45:54.792Z,8.40
2023-03-12T22:48:08.018Z,9.60
2023-03-12T22:50:21.091Z,30.30
2023-03-12T22:52:34.883Z,22.20
2023-03-12T22:54:47.458Z,8.00
2023-03-12T22:57:00.062Z,14.40
2023-03-12T22:59:12.618Z,13.00
2023-03-12T23:01:25.362Z,8.50
2023-03-12T23:03:40.032Z,6.40
2023-03-12T23:05:52.687Z,13.30
2023-03-12T23:08:05.447Z,6.90
2023-03-12T23:10:18.073Z,14.40
2023-03-12T23:12:30.798Z,6.20
2023-03-12T23:14:43.360Z,8.40
2023-03-12T23:16:57.440Z,7.10
2023-03-12T23:19:10.003Z,20.70
2023-03-12T23:21:23.920Z,8.80
2023-03-12T23:23:37.461Z,6.10
2023-03-12T23:25:54.729Z,11.80
2023-03-12T23:28:07.512Z,16.10
2023-03-12T23:30:20.149Z,10.20
2023-03-12T23:32:34.507Z,5.70
2023-03-12T23:34:47.197Z,7.00
2023-03-12T23:37:00.094Z,8.20
2023-03-12T23:39:13.308Z,6.40
2023-03-12T23:41:29.452Z,6.30
2023-03-12T23:43:43.363Z,6.00
2023-03-12T23:45:58.389Z,5.10
2023-03-12T23:48:11.062Z,5.90
2023-03-12T23:50:23.692Z,7.30
2023-03-12T23:52:36.286Z,4.50
2023-03-12T23:54:48.945Z,3.20
2023-03-12T23:57:01.780Z,5.70
2023-03-12T23:59:14.322Z,3.60
